Startpagina
METAR-TAF:

METAR-TAF

Vliegvelden :

Southampton Airport

Southampton, Engeland

breedte: 50-54N, lengte: 001-24W, hoogte: 9 m

Actueel weer

Dit bericht is 6 uur en het 10 minuten geleden gemaakt, om 21:20 UTC
Wind 5 kt uit het oosten, variërend tussen het noordoosten en het oostzuidoosten
Temperatuur 15°C
Vochtigheid 55%
Druk 1018 hPa
Zicht 10 km of meer
geen wolken onder 1500 m en geen cumulonimbus

METAR: EGHI 202120Z 08005KT 050V110 CAVOK 15/06 Q1018

Tijdstip: 04:30 (03:30 UTC)

Verwachting

Dit bericht is 10 uur en het 29 minuten geleden gemaakt, om 17:01 UTC
Verwachting geldig van 20 om 18 UTC tot 20 om 22 UTC
Wind 8 kt uit het oosten
Zicht 10 km of meer
geen wolken onder 1500 m en geen cumulonimbus
Kans 30% :
Tijdelijke
van 20 om 18 UTC tot 20 om 22 UTC
Wind 15 kt uit het oostzuidoosten met uitschieters tot 25 kt

TAF: EGHI 201701Z 2018/2022 10008KT CAVOK PROB30 TEMPO 2018/2022 11015G25KT

Waarnemingen en weersverwachtingen van meer dan 4000 vliegvelden (METAR en TAF).

De beschikbare stations zijn de gele en rode punten op de kaart.

Ga met uw muis naar het station om de naam te zien.

Klik dan om waarnemingen en weersverwachtingen te zien.

kaart wijzigen: klik op de groene knoppen met een zwart kruis om in te zoomen, op de groene knop met een streepje om uit te zoomen of op de groene pijlen voor aangrenzende kaarten.


METAR-TAF: